Time;durP1;ratioP1;P1;durP2;ratioP2;P2;SDS_P1;SDS_P2;PMS_P1;PMS_P2;Temp;Humidity;BMP_temperature;BMP_pressure;BME280_temperature;BME280_humidity;BME280_pressure;Samples;Min_cycle;Max_cycle;Signal;HPM_P1;HPM_P2
2022/04/21 00:01:29;;;;;;;3.33;2.97;;;8.10;99.90;;;;;;5194541;28;20213;-50
2022/04/21 00:03:59;;;;;;;8.10;3.30;;;8.10;99.90;;;;;;5181675;28;20185;-49
2022/04/21 00:06:30;;;;;;;10.07;4.13;;;8.10;99.90;;;;;;5184570;28;20478;-50
2022/04/21 00:09:01;;;;;;;9.03;3.47;;;8.10;99.90;;;;;;5184142;28;20629;-48
2022/04/21 00:11:31;;;;;;;8.47;3.80;;;8.00;99.90;;;;;;5183172;28;20200;-49
2022/04/21 00:14:02;;;;;;;3.50;2.70;;;8.00;99.90;;;;;;5180142;28;20659;-49
2022/04/21 00:16:32;;;;;;;5.13;3.47;;;8.00;99.90;;;;;;5200291;28;20200;-49
2022/04/21 00:19:03;;;;;;;9.50;3.83;;;8.10;99.90;;;;;;5198633;28;20239;-49
2022/04/21 00:24:22;;;;;;;11.30;3.63;;;8.10;99.90;;;;;;5183279;28;20215;-50
2022/04/21 00:26:53;;;;;;;5.00;3.33;;;8.10;99.90;;;;;;5199112;28;20785;-50
2022/04/21 00:29:23;;;;;;;10.43;3.90;;;8.10;99.90;;;;;;5181773;28;20185;-51
2022/04/21 00:31:54;;;;;;;8.70;3.90;;;8.10;99.90;;;;;;5183855;28;20291;-50
2022/04/21 00:34:24;;;;;;;5.23;3.33;;;8.10;99.90;;;;;;5182755;28;20222;-50
2022/04/21 00:36:55;;;;;;;11.20;3.77;;;8.00;99.90;;;;;;5180770;28;20640;-53
2022/04/21 00:39:27;;;;;;;11.03;3.80;;;8.00;99.90;;;;;;5185744;28;20645;-49
2022/04/21 00:41:59;;;;;;;7.47;3.80;;;8.00;99.90;;;;;;5181130;28;20183;-50
2022/04/21 00:44:30;;;;;;;8.40;3.67;;;8.00;99.90;;;;;;5164222;28;20467;-49
2022/04/21 00:47:03;;;;;;;7.73;3.67;;;8.00;99.90;;;;;;5181847;28;20448;-49
2022/04/21 00:49:35;;;;;;;4.20;3.37;;;8.00;99.90;;;;;;5184095;28;20997;-48
2022/04/21 00:52:07;;;;;;;9.77;4.07;;;7.90;99.90;;;;;;5182848;28;20954;-48
2022/04/21 00:54:37;;;;;;;6.30;2.93;;;7.90;99.90;;;;;;5184053;28;20811;-50
2022/04/21 00:57:09;;;;;;;7.60;3.47;;;7.90;99.90;;;;;;5181824;28;20435;-49
2022/04/21 00:59:41;;;;;;;3.97;3.50;;;7.90;99.90;;;;;;5181890;28;20204;-49
2022/04/21 01:05:03;;;;;;;10.60;4.10;;;7.80;99.90;;;;;;5179310;28;20477;-50
2022/04/21 01:07:34;;;;;;;8.07;3.40;;;7.70;99.90;;;;;;5181095;28;20447;-48
2022/04/21 01:10:05;;;;;;;10.00;3.90;;;7.70;99.90;;;;;;5183980;28;20446;-50
2022/04/21 01:12:35;;;;;;;11.30;3.97;;;7.70;99.90;;;;;;5178911;28;20435;-50
2022/04/21 01:15:07;;;;;;;10.13;3.20;;;7.70;99.90;;;;;;5181610;28;20597;-50
2022/04/21 01:17:38;;;;;;;10.63;3.87;;;7.70;99.90;;;;;;5178312;28;20184;-48
2022/04/21 01:20:09;;;;;;;7.23;3.20;;;7.60;99.90;;;;;;5181991;28;20476;-50
2022/04/21 01:22:40;;;;;;;9.00;4.10;;;7.60;99.90;;;;;;5182355;28;20431;-49
2022/04/21 01:25:11;;;;;;;9.03;4.13;;;7.60;99.90;;;;;;5182892;28;20855;-50
2022/04/21 01:27:42;;;;;;;14.93;4.07;;;7.60;99.90;;;;;;5182468;28;20179;-49
2022/04/21 01:30:13;;;;;;;4.57;3.63;;;7.60;99.90;;;;;;5196870;28;20199;-49
2022/04/21 01:32:45;;;;;;;7.57;3.53;;;7.50;99.90;;;;;;5182355;28;20941;-49
2022/04/21 01:35:15;;;;;;;12.17;4.37;;;7.50;99.90;;;;;;5182255;28;20454;-50
2022/04/21 01:43:24;;;;;;;4.40;3.50;;;7.40;99.90;;;;;;5177672;28;20542;-49
2022/04/21 01:45:54;;;;;;;7.10;3.97;;;7.40;99.90;;;;;;5219363;23;21041;-49
2022/04/21 01:48:25;;;;;;;5.70;3.80;;;7.50;99.90;;;;;;5220412;28;20194;-48
2022/04/21 01:50:56;;;;;;;11.93;3.67;;;7.50;99.90;;;;;;5215657;28;20191;-49
2022/04/21 01:53:26;;;;;;;7.27;4.20;;;7.50;99.90;;;;;;5206784;28;20212;-48
2022/04/21 01:55:57;;;;;;;12.67;3.33;;;7.40;99.90;;;;;;5221558;28;20195;-49
2022/04/21 01:58:27;;;;;;;5.30;3.23;;;7.40;99.90;;;;;;5203836;28;20214;-49
2022/04/21 02:00:58;;;;;;;7.07;4.37;;;7.40;99.90;;;;;;5209290;28;20195;-49
2022/04/21 02:03:30;;;;;;;7.93;3.40;;;7.40;99.90;;;;;;5219397;28;20201;-48
2022/04/21 02:06:01;;;;;;;10.60;4.03;;;7.30;99.90;;;;;;5221629;28;20221;-49
2022/04/21 02:08:31;;;;;;;9.00;4.37;;;7.30;99.90;;;;;;5213541;28;20786;-47
2022/04/21 02:11:02;;;;;;;9.67;4.07;;;7.30;99.90;;;;;;5221916;28;20193;-48
2022/04/21 02:13:33;;;;;;;8.90;3.57;;;7.30;99.90;;;;;;5221798;28;20333;-48
2022/04/21 02:16:04;;;;;;;10.90;4.20;;;7.30;99.90;;;;;;5197581;28;20391;-48
2022/04/21 02:18:34;;;;;;;10.53;3.70;;;7.40;99.90;;;;;;5217383;28;20229;-48
2022/04/21 02:21:05;;;;;;;6.97;3.07;;;7.40;99.90;;;;;;5219929;28;20689;-48
2022/04/21 02:23:35;;;;;;;8.30;3.97;;;7.40;99.90;;;;;;5216493;28;20193;-50
2022/04/21 02:26:06;;;;;;;11.20;3.70;;;7.40;99.90;;;;;;5212297;28;20668;-50
2022/04/21 02:28:37;;;;;;;10.93;2.77;;;7.40;99.90;;;;;;5218744;28;20245;-47
2022/04/21 02:31:07;;;;;;;7.57;3.70;;;7.40;99.90;;;;;;5214664;28;20187;-47
2022/04/21 02:33:38;;;;;;;5.13;3.30;;;7.40;99.90;;;;;;5220123;28;20536;-48
2022/04/21 02:36:08;;;;;;;7.47;4.03;;;7.40;99.90;;;;;;5214133;28;20202;-47
2022/04/21 02:38:39;;;;;;;7.80;3.63;;;7.40;99.90;;;;;;5210754;28;20207;-48
2022/04/21 02:41:09;;;;;;;9.43;4.10;;;7.40;99.90;;;;;;5222324;28;20175;-49
2022/04/21 02:43:40;;;;;;;7.87;3.70;;;7.40;99.90;;;;;;5220736;28;20261;-49
2022/04/21 02:46:10;;;;;;;6.07;3.90;;;7.40;99.90;;;;;;5221244;28;20275;-49
2022/04/21 02:48:41;;;;;;;9.50;3.77;;;7.40;99.90;;;;;;5217327;28;20528;-49
2022/04/21 02:51:12;;;;;;;10.63;3.90;;;7.40;99.90;;;;;;5216364;28;20183;-48
2022/04/21 02:59:20;;;;;;;7.77;4.30;;;7.50;99.90;;;;;;5218655;28;20469;-48
2022/04/21 03:01:51;;;;;;;6.87;4.23;;;7.50;99.90;;;;;;5206661;28;20426;-47
2022/04/21 03:04:21;;;;;;;11.30;4.40;;;7.40;99.90;;;;;;5220358;28;20202;-50
2022/04/21 03:06:52;;;;;;;12.80;3.90;;;7.50;99.90;;;;;;5218190;28;20996;-49
2022/04/21 03:09:23;;;;;;;38.47;4.83;;;7.40;99.90;;;;;;5217695;28;20206;-49
2022/04/21 03:11:53;;;;;;;8.87;4.30;;;7.40;99.90;;;;;;5216021;28;20198;-49
2022/04/21 03:14:24;;;;;;;7.37;4.10;;;7.40;99.90;;;;;;5219799;28;20202;-49
2022/04/21 03:16:54;;;;;;;9.00;4.20;;;7.40;99.90;;;;;;5219872;28;20224;-48
2022/04/21 03:19:25;;;;;;;8.60;4.10;;;7.30;99.90;;;;;;5221127;28;20589;-49
2022/04/21 03:24:45;;;;;;;10.50;3.93;;;7.40;99.90;;;;;;5220170;28;20410;-49
2022/04/21 03:27:16;;;;;;;10.40;3.50;;;7.50;99.90;;;;;;5224384;28;20464;-50
2022/04/21 03:29:46;;;;;;;12.87;3.77;;;7.50;99.90;;;;;;5222235;28;20191;-49
2022/04/21 03:32:17;;;;;;;8.47;5.10;;;7.50;99.90;;;;;;5223471;28;20191;-49
2022/04/21 03:34:47;;;;;;;6.60;3.67;;;7.40;99.90;;;;;;5219585;28;20210;-50
2022/04/21 03:37:19;;;;;;;8.37;4.43;;;7.40;99.90;;;;;;5210817;28;20198;-53
2022/04/21 03:39:49;;;;;;;4.43;3.70;;;7.40;99.90;;;;;;5220935;28;20297;-49
2022/04/21 03:42:26;;;;;;;7.03;4.60;;;7.40;99.90;;;;;;5211310;28;20521;-48
2022/04/21 03:44:57;;;;;;;8.27;4.50;;;7.30;99.90;;;;;;5219422;28;20216;-49
2022/04/21 03:47:28;;;;;;;9.50;5.30;;;7.30;99.90;;;;;;5220994;28;22032;-49
2022/04/21 03:49:58;;;;;;;8.50;4.30;;;7.30;99.90;;;;;;5200764;28;21025;-49
2022/04/21 03:52:29;;;;;;;7.80;4.93;;;7.20;99.90;;;;;;5224286;28;20190;-48
2022/04/21 03:54:59;;;;;;;12.80;4.57;;;7.30;99.90;;;;;;5221833;28;20190;-47
2022/04/21 03:57:30;;;;;;;9.50;4.10;;;7.30;99.90;;;;;;5215782;28;20701;-48
2022/04/21 04:00:00;;;;;;;10.03;3.53;;;7.40;99.90;;;;;;5226743;28;20248;-48
2022/04/21 04:02:31;;;;;;;7.53;4.30;;;7.40;99.90;;;;;;5217638;28;20186;-48
2022/04/21 04:05:02;;;;;;;10.47;4.43;;;7.40;99.90;;;;;;5220678;28;20297;-50
2022/04/21 04:13:10;;;;;;;11.40;4.87;;;7.40;99.90;;;;;;5218342;28;20446;-49
2022/04/21 04:15:41;;;;;;;7.70;3.70;;;7.40;99.90;;;;;;5218263;28;20465;-49
2022/04/21 04:18:11;;;;;;;6.33;4.10;;;7.40;99.90;;;;;;5218563;28;20210;-48
2022/04/21 04:20:42;;;;;;;14.27;4.77;;;7.40;99.90;;;;;;5220412;28;20649;-48
2022/04/21 04:23:17;;;;;;;9.80;4.27;;;7.40;99.90;;;;;;5202458;28;20245;-48
2022/04/21 04:25:48;;;;;;;8.43;4.50;;;7.40;99.90;;;;;;5221868;28;20510;-49
2022/04/21 04:28:18;;;;;;;9.27;4.80;;;7.40;99.90;;;;;;5215528;28;20448;-49
2022/04/21 04:30:49;;;;;;;6.10;4.80;;;7.30;99.90;;;;;;5215667;28;20190;-47
2022/04/21 04:33:19;;;;;;;8.03;4.43;;;7.30;99.90;;;;;;5212354;28;20183;-49
2022/04/21 04:35:50;;;;;;;14.40;5.30;;;7.30;99.90;;;;;;5222884;28;20209;-49
2022/04/21 04:38:21;;;;;;;9.73;5.17;;;7.30;99.90;;;;;;5219572;28;20205;-48
2022/04/21 04:40:51;;;;;;;13.50;4.97;;;7.30;99.90;;;;;;5210646;28;20231;-47
2022/04/21 04:43:22;;;;;;;8.10;4.33;;;7.20;99.90;;;;;;5205891;28;20202;-50
2022/04/21 04:48:42;;;;;;;15.07;5.83;;;7.20;99.90;;;;;;5218064;28;20822;-48
2022/04/21 04:51:12;;;;;;;23.10;5.23;;;7.30;99.90;;;;;;5215315;28;20550;-48
2022/04/21 04:53:43;;;;;;;11.00;6.47;;;7.30;99.90;;;;;;5217508;28;20698;-49
2022/04/21 04:56:14;;;;;;;15.80;4.97;;;7.30;99.90;;;;;;5204606;28;20640;-48
2022/04/21 04:58:44;;;;;;;11.00;4.90;;;7.40;99.90;;;;;;5224700;28;20211;-48
2022/04/21 05:01:26;;;;;;;9.00;4.10;;;7.40;99.90;;;;;;5220149;28;20436;-47
2022/04/21 05:04:09;;;;;;;14.47;6.03;;;7.40;99.90;;;;;;5216180;28;20638;-49
2022/04/21 05:06:48;;;;;;;10.80;5.57;;;7.40;99.90;;;;;;5220504;28;20804;-48
2022/04/21 05:09:24;;;;;;;8.07;4.63;;;7.50;99.90;;;;;;5215880;28;20594;-48
2022/04/21 05:11:58;;;;;;;11.03;5.70;;;7.50;99.90;;;;;;5217979;28;20437;-49
2022/04/21 05:14:29;;;;;;;11.10;4.57;;;7.50;99.90;;;;;;5220683;28;20624;-49
2022/04/21 05:17:00;;;;;;;15.90;5.43;;;7.50;99.90;;;;;;5218685;28;20532;-48
2022/04/21 05:19:30;;;;;;;13.70;5.10;;;7.50;99.90;;;;;;5213763;28;20454;-49
2022/04/21 05:22:04;;;;;;;18.00;4.53;;;7.60;99.90;;;;;;5215350;28;20310;-49
2022/04/21 05:24:36;;;;;;;9.30;4.50;;;7.60;99.90;;;;;;5214517;28;20281;-48
2022/04/21 05:27:07;;;;;;;19.90;5.07;;;7.60;99.90;;;;;;5218834;28;20421;-48
2022/04/21 05:32:30;;;;;;;7.93;4.03;;;7.70;99.90;;;;;;5213018;28;20787;-49
2022/04/21 05:35:01;;;;;;;10.60;5.83;;;7.70;99.90;;;;;;5215663;28;20454;-47
2022/04/21 05:37:33;;;;;;;13.00;6.27;;;7.70;99.90;;;;;;5201286;28;20957;-50
2022/04/21 05:40:04;;;;;;;15.27;4.97;;;7.60;99.90;;;;;;5215045;28;20226;-48
2022/04/21 05:42:38;;;;;;;11.70;5.00;;;7.60;99.90;;;;;;5215325;28;20438;-50
2022/04/21 05:45:10;;;;;;;7.83;4.73;;;7.60;99.90;;;;;;5217874;28;20543;-49
2022/04/21 05:47:41;;;;;;;6.90;4.60;;;7.60;99.90;;;;;;5215493;28;20860;-48
2022/04/21 05:50:13;;;;;;;10.47;5.40;;;7.60;99.90;;;;;;5221472;28;20438;-49
2022/04/21 05:52:45;;;;;;;10.00;5.07;;;7.70;99.90;;;;;;5219080;28;20499;-50
2022/04/21 05:55:16;;;;;;;16.27;5.53;;;7.80;99.90;;;;;;5218344;28;20465;-49
2022/04/21 05:57:47;;;;;;;9.47;4.70;;;7.80;99.90;;;;;;5211701;28;20435;-50
2022/04/21 06:00:18;;;;;;;7.87;5.00;;;7.80;99.90;;;;;;5221530;28;20980;-49
2022/04/21 06:02:48;;;;;;;10.20;4.60;;;7.90;99.90;;;;;;5221496;28;20184;-49
2022/04/21 06:05:18;;;;;;;8.27;4.40;;;7.90;99.90;;;;;;5215542;28;20564;-48
2022/04/21 06:07:49;;;;;;;8.53;4.90;;;8.00;99.90;;;;;;5220357;28;20229;-49
2022/04/21 06:10:20;;;;;;;8.07;4.43;;;8.00;99.90;;;;;;5216304;28;20291;-50
2022/04/21 06:12:50;;;;;;;20.47;4.87;;;8.10;99.90;;;;;;5213214;28;20186;-48
2022/04/21 06:15:21;;;;;;;16.93;6.03;;;8.10;99.90;;;;;;5220588;28;20253;-47
2022/04/21 06:17:51;;;;;;;12.50;5.50;;;8.20;99.90;;;;;;5220417;28;20191;-48
2022/04/21 06:20:21;;;;;;;14.63;4.97;;;8.10;99.90;;;;;;5217593;28;20205;-49
2022/04/21 06:22:53;;;;;;;8.43;4.67;;;8.20;99.90;;;;;;5222292;28;20535;-50
2022/04/21 06:25:23;;;;;;;12.13;5.70;;;8.20;99.90;;;;;;5226612;28;20312;-48
2022/04/21 06:27:54;;;;;;;6.10;4.17;;;8.30;99.90;;;;;;5222970;28;20451;-48
2022/04/21 06:30:24;;;;;;;5.40;4.20;;;8.40;99.90;;;;;;5216152;28;20298;-47
2022/04/21 06:32:55;;;;;;;11.03;4.67;;;8.50;99.90;;;;;;5215962;28;20210;-48
2022/04/21 06:35:26;;;;;;;16.20;3.77;;;8.60;99.90;;;;;;5226816;28;20207;-47
2022/04/21 06:37:57;;;;;;;9.80;5.00;;;8.80;99.90;;;;;;5224516;28;20562;-49
2022/04/21 06:40:28;;;;;;;12.73;4.77;;;9.00;99.90;;;;;;5212747;28;20466;-49
2022/04/21 06:48:01;;;;;;;19.97;5.07;;;9.20;99.90;;;;;;5225425;28;20228;-48
2022/04/21 06:48:42;;;;;;;8.43;3.90;;;9.40;99.90;;;;;;5224831;28;20512;-48
2022/04/21 06:51:13;;;;;;;10.70;4.70;;;9.40;99.90;;;;;;5233041;28;20428;-49
2022/04/21 06:53:44;;;;;;;4.87;4.43;;;9.50;99.90;;;;;;5226670;28;20433;-47
2022/04/21 06:56:16;;;;;;;8.60;4.03;;;9.50;99.90;;;;;;5231690;28;20224;-49
2022/04/21 06:58:46;;;;;;;5.90;4.30;;;9.50;99.90;;;;;;5231065;28;20582;-48
2022/04/21 07:01:17;;;;;;;16.50;4.87;;;9.60;99.90;;;;;;5224833;28;20482;-48
2022/04/21 07:03:48;;;;;;;18.13;4.07;;;9.50;99.90;;;;;;5225855;28;20179;-50
2022/04/21 07:06:19;;;;;;;10.03;4.30;;;9.40;99.90;;;;;;5223446;28;20476;-49
2022/04/21 07:08:49;;;;;;;17.77;4.30;;;9.40;99.90;;;;;;5211191;28;20312;-50
2022/04/21 07:11:20;;;;;;;8.67;3.90;;;9.30;99.90;;;;;;5219732;28;20187;-50
2022/04/21 07:13:52;;;;;;;9.83;4.50;;;9.30;99.90;;;;;;5229071;28;20186;-49
2022/04/21 07:16:22;;;;;;;13.33;4.80;;;9.30;99.90;;;;;;5226879;28;20551;-50
2022/04/21 07:18:53;;;;;;;13.37;4.63;;;9.30;99.90;;;;;;5220418;28;20572;-53
2022/04/21 07:21:24;;;;;;;12.50;4.87;;;9.20;99.90;;;;;;5228012;28;20178;-51
2022/04/21 07:23:54;;;;;;;18.30;4.80;;;9.00;99.90;;;;;;5227412;28;20238;-52
2022/04/21 07:26:25;;;;;;;10.60;5.40;;;9.00;99.90;;;;;;5228422;28;20361;-48
2022/04/21 07:28:57;;;;;;;14.03;5.60;;;9.00;99.90;;;;;;5231283;28;20179;-49
2022/04/21 07:31:28;;;;;;;16.53;5.17;;;9.00;99.90;;;;;;5230994;28;20179;-49
2022/04/21 07:33:59;;;;;;;6.73;4.30;;;9.00;99.90;;;;;;5226992;28;20445;-50
2022/04/21 07:36:29;;;;;;;12.33;4.97;;;9.00;99.90;;;;;;5223379;28;20532;-49
2022/04/21 07:39:00;;;;;;;14.10;5.07;;;9.00;99.90;;;;;;5225431;28;20199;-51
2022/04/21 07:41:30;;;;;;;7.20;4.80;;;9.00;99.90;;;;;;5220045;28;20221;-51
2022/04/21 07:44:01;;;;;;;9.73;4.73;;;9.00;99.90;;;;;;5218048;28;20194;-50
2022/04/21 07:46:32;;;;;;;5.27;4.30;;;9.00;99.90;;;;;;5202698;22;20294;-54
2022/04/21 07:53:12;;;;;;;11.87;5.60;;;9.00;99.90;;;;;;5173019;28;20439;-52
2022/04/21 07:54:43;;;;;;;9.93;4.10;;;9.10;99.90;;;;;;5180562;28;20459;-53
2022/04/21 07:57:14;;;;;;;6.20;4.70;;;9.10;99.90;;;;;;5181066;28;20827;-52
2022/04/21 07:59:45;;;;;;;14.67;4.50;;;9.10;99.90;;;;;;5163342;28;20468;-52
2022/04/21 08:02:16;;;;;;;12.93;5.03;;;9.10;99.90;;;;;;5166170;28;20272;-53
2022/04/21 08:04:47;;;;;;;13.30;4.87;;;9.10;99.90;;;;;;5175649;28;20231;-52
2022/04/21 08:07:18;;;;;;;16.93;5.40;;;9.10;99.90;;;;;;5169745;28;20439;-53
2022/04/21 08:09:48;;;;;;;8.20;4.80;;;9.00;99.90;;;;;;5187113;28;20443;-53
2022/04/21 08:12:19;;;;;;;8.63;5.43;;;9.00;99.90;;;;;;5178183;28;20188;-55
2022/04/21 08:14:51;;;;;;;9.20;5.13;;;9.10;99.90;;;;;;5166089;28;20236;-54
2022/04/21 08:17:22;;;;;;;12.37;5.40;;;9.10;99.90;;;;;;5175446;28;20189;-53
2022/04/21 08:19:52;;;;;;;14.93;5.60;;;9.30;99.90;;;;;;5170996;28;20471;-53
2022/04/21 08:22:23;;;;;;;14.50;5.20;;;9.30;99.90;;;;;;5153826;28;20818;-53
2022/04/21 08:33:20;;;;;;;6.83;5.50;;;9.70;99.90;;;;;;5182831;28;20954;-53
2022/04/21 08:35:57;;;;;;;10.60;5.97;;;9.60;99.90;;;;;;5163015;28;22657;-53
2022/04/21 08:38:28;;;;;;;12.10;6.43;;;9.60;99.90;;;;;;5180598;28;20661;-53
2022/04/21 08:41:07;;;;;;;12.23;6.47;;;9.60;99.90;;;;;;5180894;28;20927;-54
2022/04/21 08:43:40;;;;;;;7.07;5.77;;;9.60;99.90;;;;;;5164575;28;20424;-52
2022/04/21 08:46:16;;;;;;;11.53;5.57;;;9.80;99.90;;;;;;5174599;28;20463;-54
2022/04/21 08:48:50;;;;;;;11.70;6.20;;;10.00;99.90;;;;;;5175251;28;20949;-54
2022/04/21 08:51:20;;;;;;;9.13;5.30;;;10.20;99.90;;;;;;5165669;28;20446;-53
2022/04/21 08:53:51;;;;;;;14.83;5.30;;;10.30;99.90;;;;;;5171616;28;20443;-53
2022/04/21 08:56:22;;;;;;;11.70;5.53;;;10.70;99.90;;;;;;5160282;28;20197;-53
2022/04/21 08:58:53;;;;;;;13.40;5.90;;;10.90;99.90;;;;;;5162737;28;20502;-52
2022/04/21 09:01:25;;;;;;;8.20;6.00;;;10.80;99.90;;;;;;5178705;28;20185;-53
2022/04/21 09:03:55;;;;;;;9.23;5.77;;;10.80;99.90;;;;;;5162440;28;20185;-54
2022/04/21 09:06:27;;;;;;;9.90;4.90;;;10.90;99.90;;;;;;5176096;28;20462;-54
2022/04/21 09:09:21;;;;;;;8.63;6.50;;;11.00;99.90;;;;;;5162209;28;20720;-53
2022/04/21 09:11:56;;;;;;;13.77;5.93;;;11.10;99.90;;;;;;5158366;28;20493;-53
2022/04/21 09:14:26;;;;;;;11.80;5.43;;;11.20;99.90;;;;;;5174352;28;20977;-53
2022/04/21 09:17:05;;;;;;;9.17;5.90;;;11.50;99.90;;;;;;5176089;28;20573;-53
2022/04/21 09:19:59;;;;;;;6.60;4.70;;;11.70;99.90;;;;;;5174922;28;20287;-54
2022/04/21 09:22:33;;;;;;;8.53;6.50;;;11.60;99.90;;;;;;5169644;28;20432;-54
2022/04/21 09:25:04;;;;;;;13.80;6.70;;;11.70;99.90;;;;;;5171225;28;20451;-53
2022/04/21 09:27:54;;;;;;;14.57;6.30;;;11.50;99.90;;;;;;5178422;28;20427;-53
2022/04/21 09:30:25;;;;;;;9.50;6.23;;;11.40;99.90;;;;;;5172432;28;20966;-54
2022/04/21 09:33:00;;;;;;;11.37;5.70;;;11.50;99.90;;;;;;5169847;28;20447;-54
2022/04/21 09:35:37;;;;;;;19.40;6.20;;;11.70;99.90;;;;;;5152551;28;20450;-53
2022/04/21 09:38:07;;;;;;;10.53;6.80;;;11.90;99.90;;;;;;5156226;28;20468;-54
2022/04/21 09:40:45;;;;;;;10.70;5.70;;;11.90;99.90;;;;;;5161831;28;20916;-55
2022/04/21 09:43:26;;;;;;;10.40;6.07;;;12.00;99.90;;;;;;5159726;28;20222;-54
2022/04/21 09:46:21;;;;;;;9.83;6.53;;;11.90;99.90;;;;;;5164452;28;20475;-54
2022/04/21 09:48:53;;;;;;;16.30;6.20;;;11.70;99.90;;;;;;5174843;28;20435;-54
2022/04/21 09:51:25;;;;;;;11.20;6.20;;;11.50;99.90;;;;;;5172645;28;20443;-54
2022/04/21 09:53:59;;;;;;;9.87;6.43;;;11.60;99.90;;;;;;5179231;28;20800;-55
2022/04/21 09:56:36;;;;;;;20.93;7.33;;;11.40;99.90;;;;;;5175617;28;20458;-54
2022/04/21 09:59:11;;;;;;;9.87;6.53;;;11.30;99.90;;;;;;5161547;28;20801;-53
2022/04/21 10:01:42;;;;;;;16.77;6.93;;;11.40;99.90;;;;;;5168377;28;20450;-54
2022/04/21 10:04:13;;;;;;;12.10;7.23;;;11.40;99.90;;;;;;5162744;28;20435;-54
2022/04/21 10:06:44;;;;;;;11.50;7.03;;;11.40;99.90;;;;;;5160433;28;20196;-54
2022/04/21 10:09:18;;;;;;;9.30;7.70;;;11.30;99.90;;;;;;5174150;28;20435;-54
2022/04/21 10:11:50;;;;;;;12.37;7.60;;;11.20;99.90;;;;;;5173996;28;20438;-53
2022/04/21 10:14:21;;;;;;;8.50;6.23;;;11.10;99.90;;;;;;5155733;28;20431;-55
2022/04/21 10:16:53;;;;;;;15.80;8.77;;;11.00;99.90;;;;;;5170864;28;20439;-56
2022/04/21 10:19:25;;;;;;;10.57;7.87;;;11.00;99.90;;;;;;5169810;28;20812;-54
2022/04/21 10:22:02;;;;;;;13.73;8.50;;;11.00;99.90;;;;;;5180913;28;20532;-53
2022/04/21 10:24:37;;;;;;;14.40;8.17;;;10.90;99.90;;;;;;5174172;28;20434;-56
2022/04/21 10:27:34;;;;;;;17.87;8.17;;;10.90;99.90;;;;;;5183146;28;20435;-54
2022/04/21 10:30:28;;;;;;;12.53;7.87;;;11.00;99.90;;;;;;5182163;28;20427;-54
2022/04/21 10:33:01;;;;;;;20.90;8.70;;;11.10;99.90;;;;;;5176532;28;20813;-54
2022/04/21 10:35:33;;;;;;;22.20;7.73;;;11.20;99.90;;;;;;5164725;28;20462;-56
2022/04/21 10:38:13;;;;;;;20.13;9.77;;;11.30;99.90;;;;;;5171676;28;20439;-53
2022/04/21 10:41:06;;;;;;;16.00;8.67;;;11.40;99.90;;;;;;5175324;28;20475;-53
2022/04/21 10:43:48;;;;;;;11.40;7.90;;;11.40;99.90;;;;;;5152925;28;20997;-53
2022/04/21 10:46:26;;;;;;;11.40;7.50;;;11.40;99.90;;;;;;5180534;28;20997;-55
2022/04/21 10:48:58;;;;;;;12.17;9.43;;;11.50;99.90;;;;;;5169172;28;20443;-53
2022/04/21 10:51:41;;;;;;;12.60;8.67;;;11.50;99.90;;;;;;5159073;28;20447;-53
2022/04/21 10:57:16;;;;;;;15.50;8.10;;;11.50;99.90;;;;;;5162935;28;20424;-56
2022/04/21 11:00:00;;;;;;;14.37;8.53;;;11.70;99.90;;;;;;5179666;28;20455;-55
2022/04/21 11:02:41;;;;;;;14.90;7.70;;;11.80;99.90;;;;;;5174384;28;20590;-55
2022/04/21 11:05:23;;;;;;;11.03;7.53;;;12.10;99.90;;;;;;5175250;28;20460;-54
2022/04/21 11:07:56;;;;;;;11.13;7.93;;;12.10;99.90;;;;;;5176721;28;20533;-54
2022/04/21 11:10:39;;;;;;;13.03;7.27;;;12.40;99.90;;;;;;5161245;28;20475;-53
2022/04/21 11:13:16;;;;;;;13.30;7.80;;;12.50;99.90;;;;;;5167468;28;20434;-56
2022/04/21 11:15:53;;;;;;;14.53;9.17;;;12.70;99.90;;;;;;5164649;28;20462;-53
2022/04/21 11:18:31;;;;;;;10.23;7.67;;;12.80;99.90;;;;;;5181315;28;20435;-54
2022/04/21 11:21:26;;;;;;;10.63;7.00;;;12.80;99.90;;;;;;5160537;28;20450;-54
2022/04/21 11:23:57;;;;;;;13.30;6.80;;;12.80;99.90;;;;;;5169644;28;20440;-54
2022/04/21 11:26:30;;;;;;;8.27;6.70;;;12.90;99.90;;;;;;5179877;28;20982;-53
2022/04/21 11:29:03;;;;;;;10.63;6.97;;;12.80;99.90;;;;;;5165231;28;20673;-53
2022/04/21 11:31:33;;;;;;;16.40;7.30;;;12.80;99.90;;;;;;5175817;28;20435;-54
2022/04/21 11:34:04;;;;;;;7.67;6.90;;;12.70;99.90;;;;;;5165233;28;20918;-53
2022/04/21 11:36:37;;;;;;;7.33;6.63;;;12.40;99.90;;;;;;5181727;28;20204;-53
2022/04/21 11:39:08;;;;;;;14.03;7.40;;;12.30;99.90;;;;;;5181291;28;20714;-56
2022/04/21 11:41:48;;;;;;;13.20;6.63;;;12.20;99.90;;;;;;5172642;28;20423;-54
2022/04/21 11:44:22;;;;;;;9.67;6.47;;;12.10;99.90;;;;;;5167907;28;20177;-54
2022/04/21 11:46:53;;;;;;;11.87;6.53;;;11.90;99.90;;;;;;5179603;28;20537;-53
2022/04/21 11:49:24;;;;;;;6.37;5.77;;;11.90;99.90;;;;;;5151605;28;20854;-55
2022/04/21 11:51:55;;;;;;;12.73;7.03;;;12.00;99.90;;;;;;5182306;28;20443;-54
2022/04/21 11:54:25;;;;;;;9.73;7.60;;;11.90;99.90;;;;;;5181907;28;20191;-53
2022/04/21 11:56:56;;;;;;;9.90;7.33;;;11.90;99.90;;;;;;5175017;28;20287;-53
2022/04/21 11:59:35;;;;;;;18.30;6.37;;;11.80;99.90;;;;;;5185014;28;20216;-53
2022/04/21 12:07:48;;;;;;;7.60;6.90;;;12.40;99.90;;;;;;5185839;28;20431;-53
2022/04/21 12:10:18;;;;;;;9.33;7.30;;;12.50;99.90;;;;;;5183245;28;20925;-53
2022/04/21 12:12:49;;;;;;;10.73;7.33;;;12.60;99.90;;;;;;5185065;28;20563;-54
2022/04/21 12:15:28;;;;;;;15.40;6.70;;;12.60;99.90;;;;;;5184912;28;20466;-54
2022/04/21 12:18:02;;;;;;;15.17;7.63;;;12.60;99.90;;;;;;5165022;28;20552;-54
2022/04/21 12:20:33;;;;;;;10.77;6.53;;;12.50;99.90;;;;;;5168150;28;20872;-54
2022/04/21 12:23:04;;;;;;;11.03;6.40;;;12.50;99.90;;;;;;5165707;28;20431;-53
2022/04/21 12:25:34;;;;;;;9.77;6.43;;;12.40;99.90;;;;;;5179128;28;20292;-55
2022/04/21 12:28:07;;;;;;;8.60;6.30;;;12.30;99.90;;;;;;5184699;28;20181;-54
2022/04/21 12:30:40;;;;;;;15.93;7.07;;;12.30;99.90;;;;;;5183391;28;20177;-55
2022/04/21 12:33:11;;;;;;;8.10;6.40;;;12.10;99.90;;;;;;5180440;28;20439;-56
2022/04/21 12:35:49;;;;;;;14.20;7.17;;;12.00;99.90;;;;;;5169233;28;20455;-53
2022/04/21 12:41:10;;;;;;;11.27;6.27;;;11.90;99.90;;;;;;5182516;28;20505;-53
2022/04/21 12:43:41;;;;;;;6.93;5.77;;;11.80;99.90;;;;;;5178344;28;20435;-54
2022/04/21 12:46:12;;;;;;;9.60;6.43;;;11.80;99.90;;;;;;5174703;28;20569;-53
2022/04/21 12:48:48;;;;;;;6.07;5.43;;;11.90;99.90;;;;;;5182928;28;20440;-55
2022/04/21 12:51:20;;;;;;;7.10;5.53;;;11.90;99.90;;;;;;5179478;28;20580;-53
2022/04/21 12:53:57;;;;;;;6.50;5.90;;;11.90;99.90;;;;;;5151954;28;20427;-54
2022/04/21 12:56:36;;;;;;;10.30;5.93;;;11.90;99.90;;;;;;5180222;28;20477;-53
2022/04/21 12:59:07;;;;;;;8.87;4.93;;;12.00;99.90;;;;;;5181991;28;20462;-53
2022/04/21 13:01:37;;;;;;;6.07;5.13;;;12.00;99.90;;;;;;5177060;28;20487;-55
2022/04/21 13:04:08;;;;;;;4.47;4.23;;;12.10;99.90;;;;;;5181795;28;20585;-53
2022/04/21 13:06:39;;;;;;;5.73;5.00;;;12.10;99.90;;;;;;5157660;28;20239;-55
2022/04/21 13:09:10;;;;;;;4.97;4.50;;;12.10;99.90;;;;;;5176202;28;20235;-54
2022/04/21 13:11:41;;;;;;;6.17;4.93;;;12.20;99.90;;;;;;5170148;28;20654;-54
2022/04/21 13:14:11;;;;;;;5.07;4.77;;;12.10;99.90;;;;;;5164513;28;20444;-54
2022/04/21 13:16:42;;;;;;;6.03;5.10;;;12.10;99.90;;;;;;5181195;28;20204;-53
2022/04/21 13:19:12;;;;;;;12.40;6.17;;;12.10;99.90;;;;;;5177322;28;20282;-53
2022/04/21 13:21:52;;;;;;;5.60;5.17;;;12.10;99.90;;;;;;5177951;28;20180;-54
2022/04/21 13:24:25;;;;;;;9.63;5.90;;;12.00;99.90;;;;;;5158659;28;20229;-54
2022/04/21 13:26:57;;;;;;;5.33;4.83;;;12.00;99.90;;;;;;5178332;28;20429;-54
2022/04/21 13:29:29;;;;;;;6.50;5.20;;;12.00;99.90;;;;;;5170368;28;21059;-54
2022/04/21 13:34:49;;;;;;;6.20;5.67;;;12.10;99.90;;;;;;5173484;28;20797;-53
2022/04/21 13:37:20;;;;;;;5.93;5.40;;;12.00;99.90;;;;;;5162232;28;20446;-54
2022/04/21 13:39:51;;;;;;;6.20;5.60;;;12.00;99.90;;;;;;5175120;28;20201;-54
2022/04/21 13:42:21;;;;;;;4.87;4.57;;;11.90;99.90;;;;;;5181051;28;20465;-53
2022/04/21 13:44:52;;;;;;;6.00;5.50;;;11.90;99.90;;;;;;5194785;22;20204;-53
2022/04/21 13:47:23;;;;;;;9.07;6.37;;;11.90;99.90;;;;;;5216167;28;20191;-49
2022/04/21 13:49:53;;;;;;;7.33;5.50;;;11.90;99.90;;;;;;5215275;28;20419;-49
2022/04/21 13:52:24;;;;;;;6.20;5.63;;;11.80;99.90;;;;;;5211296;28;20529;-54
2022/04/21 13:54:55;;;;;;;7.40;5.80;;;11.90;99.90;;;;;;5221802;28;20188;-51
2022/04/21 13:57:26;;;;;;;11.37;6.00;;;12.00;99.90;;;;;;5224474;28;20194;-52
2022/04/21 13:59:57;;;;;;;7.03;5.27;;;12.10;99.90;;;;;;5214528;28;20504;-49
2022/04/21 14:02:27;;;;;;;9.40;6.40;;;12.10;99.90;;;;;;5214836;28;20175;-51
2022/04/21 14:04:58;;;;;;;6.70;6.03;;;12.10;99.90;;;;;;5220679;28;20248;-55
2022/04/21 14:07:29;;;;;;;6.80;6.10;;;12.10;99.90;;;;;;5221349;28;20198;-49
2022/04/21 14:09:59;;;;;;;5.63;5.13;;;12.20;99.90;;;;;;5210663;28;20187;-50
2022/04/21 14:12:30;;;;;;;6.80;6.20;;;12.20;99.90;;;;;;5207415;28;20187;-50
2022/04/21 14:15:02;;;;;;;6.50;5.70;;;12.10;99.90;;;;;;5219305;28;20199;-49